createdAt,value
2019-06-07T00:02:22.109Z,9.03
2019-06-07T00:04:52.499Z,9.75
2019-06-07T00:07:22.683Z,10.65
2019-06-07T00:09:52.835Z,10.40
2019-06-07T00:12:22.999Z,11.15
2019-06-07T00:14:52.855Z,11.40
2019-06-07T00:17:22.941Z,12.03
2019-06-07T00:19:52.804Z,12.65
2019-06-07T00:22:32.272Z,12.82
2019-06-07T00:24:54.720Z,12.10
2019-06-07T00:27:24.868Z,13.35
2019-06-07T00:29:55.023Z,13.20
2019-06-07T00:32:25.144Z,14.25
2019-06-07T00:34:55.023Z,14.05
2019-06-07T00:37:25.582Z,13.30
2019-06-07T00:40:13.324Z,12.73
2019-06-07T00:42:27.039Z,13.78
2019-06-07T00:44:57.123Z,14.10
2019-06-07T00:47:26.971Z,14.28
2019-06-07T00:49:56.786Z,13.28
2019-06-07T00:54:58.204Z,12.15
2019-06-07T00:57:28.131Z,13.08
2019-06-07T00:59:58.067Z,12.85
2019-06-07T01:02:31.211Z,13.32
2019-06-07T01:04:59.564Z,13.03
2019-06-07T01:07:29.453Z,12.65
2019-06-07T01:09:59.608Z,11.95
2019-06-07T01:12:29.514Z,11.90
2019-06-07T01:14:59.650Z,12.93
2019-06-07T01:17:49.785Z,11.93
2019-06-07T01:20:02.362Z,12.98
2019-06-07T01:22:32.327Z,13.58
2019-06-07T01:25:02.525Z,13.78
2019-06-07T01:27:32.681Z,13.00
2019-06-07T01:30:02.573Z,12.75
2019-06-07T01:32:32.589Z,12.98
2019-06-07T01:35:02.698Z,13.88
2019-06-07T01:37:32.592Z,14.28
2019-06-07T01:40:02.636Z,14.30
2019-06-07T01:42:32.495Z,13.75
2019-06-07T01:45:02.955Z,13.65
2019-06-07T01:47:33.107Z,14.83
2019-06-07T01:50:04.585Z,15.95
2019-06-07T01:52:34.399Z,14.55
2019-06-07T01:55:05.776Z,14.68
2019-06-07T01:57:47.616Z,17.02
2019-06-07T02:00:09.092Z,17.10
2019-06-07T02:02:39.256Z,17.90
2019-06-07T02:05:09.779Z,16.17
2019-06-07T02:07:39.684Z,15.70
2019-06-07T02:10:10.156Z,17.00
2019-06-07T02:12:43.588Z,17.23
2019-06-07T02:15:12.276Z,16.62
2019-06-07T02:17:42.181Z,17.20
2019-06-07T02:20:12.111Z,15.93
2019-06-07T02:22:41.953Z,16.37
2019-06-07T02:27:43.691Z,15.48
2019-06-07T02:32:47.667Z,14.50
2019-06-07T02:35:17.631Z,13.83
2019-06-07T02:37:47.536Z,14.50
2019-06-07T02:40:17.971Z,14.40
2019-06-07T02:42:47.895Z,14.00
2019-06-07T02:45:17.813Z,13.28
2019-06-07T02:47:48.598Z,12.63
2019-06-07T02:50:19.151Z,13.18
2019-06-07T02:52:49.228Z,11.60
2019-06-07T02:55:19.132Z,12.70
2019-06-07T02:57:48.960Z,13.00
2019-06-07T03:00:58.496Z,12.07
2019-06-07T03:03:13.190Z,12.28
2019-06-07T03:05:44.351Z,11.93
2019-06-07T03:08:15.988Z,13.08
2019-06-07T03:10:48.875Z,12.70
2019-06-07T03:13:21.015Z,11.80
2019-06-07T03:15:53.541Z,12.53
2019-06-07T03:18:41.898Z,11.18
2019-06-07T03:21:19.200Z,11.40
2019-06-07T03:23:50.634Z,11.55
2019-06-07T03:26:23.639Z,11.43
2019-06-07T03:28:55.321Z,12.25
2019-06-07T03:31:28.532Z,11.53
2019-06-07T03:33:58.958Z,10.53
2019-06-07T03:36:29.698Z,11.50
2019-06-07T03:39:00.775Z,10.75
2019-06-07T03:41:36.861Z,11.97
2019-06-07T03:44:03.740Z,12.80
2019-06-07T03:46:37.502Z,12.15
2019-06-07T03:49:05.331Z,12.65
2019-06-07T03:51:39.331Z,13.32
2019-06-07T03:54:06.734Z,14.20
2019-06-07T03:56:38.630Z,14.05
2019-06-07T03:59:08.337Z,12.88
2019-06-07T04:01:41.036Z,14.45
2019-06-07T04:04:09.852Z,13.30
2019-06-07T04:06:57.883Z,13.48
2019-06-07T04:09:28.761Z,12.33
2019-06-07T04:11:59.810Z,12.23
2019-06-07T04:14:30.821Z,12.00
2019-06-07T04:17:01.216Z,11.40
2019-06-07T04:19:32.309Z,10.60
2019-06-07T04:22:02.850Z,10.18
2019-06-07T04:24:36.589Z,9.15
2019-06-07T04:27:04.610Z,7.90
2019-06-07T04:30:01.983Z,8.23
2019-06-07T04:32:06.260Z,7.55
2019-06-07T04:34:38.290Z,6.58
2019-06-07T04:37:09.331Z,7.33
2019-06-07T04:39:44.708Z,5.97
2019-06-07T04:42:13.193Z,5.40
2019-06-07T04:44:44.936Z,5.75
2019-06-07T04:47:16.315Z,5.95
2019-06-07T04:49:48.743Z,6.45
2019-06-07T04:52:18.579Z,5.95
2019-06-07T04:54:48.665Z,6.65
2019-06-07T04:57:18.739Z,6.15
2019-06-07T05:02:21.078Z,6.45
2019-06-07T05:04:50.908Z,6.75
2019-06-07T05:07:20.768Z,7.17
2019-06-07T05:09:50.819Z,7.53
2019-06-07T05:12:20.722Z,8.90
2019-06-07T05:14:50.770Z,7.40
2019-06-07T05:17:20.598Z,6.72
2019-06-07T05:19:50.399Z,6.28
2019-06-07T05:22:20.510Z,6.95
2019-06-07T05:24:50.327Z,7.40
2019-06-07T05:27:20.424Z,6.47
2019-06-07T05:30:08.930Z,6.92
2019-06-07T05:32:22.054Z,7.22
2019-06-07T05:34:52.122Z,6.55
2019-06-07T05:37:22.067Z,6.72
2019-06-07T05:39:51.875Z,6.30
2019-06-07T05:42:21.935Z,7.20
2019-06-07T05:44:51.755Z,6.33
2019-06-07T05:47:21.628Z,6.45
2019-06-07T05:49:51.977Z,6.45
2019-06-07T05:52:21.779Z,6.03
2019-06-07T05:54:51.677Z,6.37
2019-06-07T05:57:21.741Z,5.12
2019-06-07T05:59:51.534Z,5.62
2019-06-07T06:02:22.960Z,6.22
2019-06-07T06:04:54.142Z,6.20
2019-06-07T06:07:23.995Z,5.80
2019-06-07T06:09:54.058Z,6.45
2019-06-07T06:12:34.761Z,5.67
2019-06-07T06:14:55.375Z,5.83
2019-06-07T06:17:25.192Z,5.33
2019-06-07T06:19:55.045Z,5.75
2019-06-07T06:22:25.095Z,5.83
2019-06-07T06:25:29.690Z,5.40
2019-06-07T06:28:03.120Z,5.28
2019-06-07T06:29:58.269Z,5.78
2019-06-07T06:32:41.955Z,5.83
2019-06-07T06:34:59.819Z,5.78
2019-06-07T06:37:29.982Z,5.75
2019-06-07T06:39:59.819Z,5.95
2019-06-07T06:42:29.618Z,6.17
2019-06-07T06:44:59.651Z,6.25
2019-06-07T06:47:29.709Z,7.22
2019-06-07T06:50:01.174Z,6.37
2019-06-07T06:52:31.046Z,6.53
2019-06-07T06:55:01.370Z,7.25
2019-06-07T06:57:32.302Z,7.00
2019-06-07T07:00:02.174Z,6.40
2019-06-07T07:02:32.227Z,6.17
2019-06-07T07:05:02.254Z,6.15
2019-06-07T07:07:32.438Z,6.47
2019-06-07T07:10:04.282Z,6.78
2019-06-07T07:12:34.087Z,6.95
2019-06-07T07:15:07.209Z,6.30
2019-06-07T07:17:50.552Z,6.17
2019-06-07T07:20:08.656Z,6.67
2019-06-07T07:22:38.457Z,6.42
2019-06-07T07:25:08.506Z,6.45
2019-06-07T07:27:38.399Z,5.50
2019-06-07T07:32:40.546Z,5.30
2019-06-07T07:35:11.201Z,5.20
2019-06-07T07:37:41.014Z,4.87
2019-06-07T07:40:55.536Z,4.55
2019-06-07T07:42:43.303Z,4.60
2019-06-07T07:45:14.774Z,4.03
2019-06-07T07:48:01.831Z,5.03
2019-06-07T07:50:16.162Z,3.90
2019-06-07T07:52:49.087Z,4.10
2019-06-07T07:55:17.622Z,4.33
2019-06-07T07:57:49.467Z,4.15
2019-06-07T08:02:55.297Z,4.23
2019-06-07T08:05:41.528Z,3.85
2019-06-07T08:08:00.266Z,3.87
2019-06-07T08:10:27.427Z,3.72
2019-06-07T08:13:22.689Z,3.70
2019-06-07T08:15:29.046Z,4.17
2019-06-07T08:18:03.884Z,3.95
2019-06-07T08:20:30.761Z,3.47
2019-06-07T08:23:01.395Z,4.00
2019-06-07T08:25:31.592Z,3.95
2019-06-07T08:28:01.428Z,4.17
2019-06-07T08:30:50.791Z,3.62
2019-06-07T08:33:24.672Z,3.60
2019-06-07T08:38:25.131Z,3.95
2019-06-07T08:40:37.672Z,4.92
2019-06-07T08:43:19.488Z,3.90
2019-06-07T08:45:39.179Z,3.83
2019-06-07T08:48:26.662Z,2.90
2019-06-07T08:50:40.623Z,3.80
2019-06-07T08:53:12.364Z,3.20
2019-06-07T08:55:42.175Z,3.83
2019-06-07T08:58:12.236Z,3.05
2019-06-07T09:00:46.012Z,3.55
2019-06-07T09:03:13.627Z,3.52
2019-06-07T09:05:43.516Z,3.70
2019-06-07T09:08:29.253Z,3.15
2019-06-07T09:10:44.986Z,3.25
2019-06-07T09:13:14.827Z,3.72
2019-06-07T09:15:46.296Z,3.17
2019-06-07T09:18:41.848Z,2.80
2019-06-07T09:20:49.489Z,3.77
2019-06-07T09:23:19.450Z,3.62
2019-06-07T09:26:00.997Z,3.12
2019-06-07T09:28:21.872Z,2.70
2019-06-07T09:30:51.677Z,3.40
2019-06-07T09:33:21.822Z,3.45
2019-06-07T09:35:51.890Z,3.42
2019-06-07T09:38:26.527Z,3.65
2019-06-07T09:40:53.503Z,3.05
2019-06-07T09:45:56.677Z,3.58
2019-06-07T09:49:09.266Z,3.52
2019-06-07T09:51:02.098Z,3.75
2019-06-07T09:53:29.674Z,3.40
2019-06-07T09:56:05.179Z,3.27
2019-06-07T09:58:51.021Z,3.10
2019-06-07T10:01:06.111Z,3.22
2019-06-07T10:03:34.043Z,3.65
2019-06-07T10:06:09.795Z,3.55
2019-06-07T10:09:57.036Z,3.33
2019-06-07T10:11:07.242Z,3.40
2019-06-07T10:13:37.125Z,3.52
2019-06-07T10:16:07.166Z,3.70
2019-06-07T10:18:37.057Z,3.60
2019-06-07T10:21:07.803Z,3.77
2019-06-07T10:23:38.588Z,3.58
2019-06-07T10:26:08.418Z,4.05
2019-06-07T10:28:38.219Z,3.10
2019-06-07T10:31:10.939Z,4.20
2019-06-07T10:33:39.600Z,3.25
2019-06-07T10:36:10.719Z,3.00
2019-06-07T10:38:40.900Z,3.60
2019-06-07T10:41:11.095Z,3.80
2019-06-07T10:43:41.128Z,2.80
2019-06-07T10:46:12.118Z,3.10
2019-06-07T10:48:42.436Z,3.15
2019-06-07T10:51:14.593Z,3.50
2019-06-07T10:53:43.845Z,3.80
2019-06-07T10:56:13.708Z,3.02
2019-06-07T10:58:43.578Z,3.47
2019-06-07T11:01:14.375Z,3.10
2019-06-07T11:03:44.377Z,2.90
2019-06-07T11:06:14.476Z,2.85
2019-06-07T11:08:44.335Z,2.90
2019-06-07T11:11:14.524Z,3.25
2019-06-07T11:13:44.416Z,2.90
2019-06-07T11:16:15.675Z,2.85
2019-06-07T11:18:46.642Z,3.30
2019-06-07T11:21:16.451Z,2.90
2019-06-07T11:23:46.269Z,3.65
2019-06-07T11:26:16.144Z,2.87
2019-06-07T11:28:45.956Z,3.10
2019-06-07T11:31:15.825Z,2.75
2019-06-07T11:33:45.768Z,3.33
2019-06-07T11:36:15.633Z,3.08
2019-06-07T11:38:45.711Z,3.60
2019-06-07T11:41:15.949Z,3.12
2019-06-07T11:43:45.815Z,3.00
2019-06-07T11:46:15.631Z,3.17
2019-06-07T11:48:45.436Z,3.75
2019-06-07T11:51:15.319Z,3.20
2019-06-07T11:53:45.119Z,2.90
2019-06-07T11:56:16.167Z,3.12
2019-06-07T11:58:47.200Z,2.83
2019-06-07T12:01:18.661Z,3.47
2019-06-07T12:03:49.542Z,3.08
2019-06-07T12:06:19.669Z,3.20
2019-06-07T12:08:49.471Z,2.65
2019-06-07T12:11:19.290Z,2.90
2019-06-07T12:13:49.438Z,3.30
2019-06-07T12:16:19.868Z,3.67
2019-06-07T12:18:49.751Z,3.33
2019-06-07T12:21:19.968Z,2.90
2019-06-07T12:23:49.815Z,2.87
2019-06-07T12:26:20.677Z,3.02
2019-06-07T12:28:50.868Z,3.00
2019-06-07T12:31:21.324Z,2.37
2019-06-07T12:33:51.348Z,2.80
2019-06-07T12:36:21.999Z,2.87
2019-06-07T12:38:52.247Z,2.45
2019-06-07T12:41:22.469Z,2.77
2019-06-07T12:43:53.274Z,2.75
2019-06-07T12:46:28.411Z,2.20
2019-06-07T12:48:55.212Z,2.20
2019-06-07T12:51:25.055Z,2.62
2019-06-07T12:53:54.976Z,2.45
2019-06-07T12:56:25.168Z,2.55
2019-06-07T12:58:56.088Z,2.45
2019-06-07T13:01:29.122Z,2.17
2019-06-07T13:03:58.950Z,3.05
2019-06-07T13:06:29.088Z,2.40
2019-06-07T13:08:58.992Z,2.55
2019-06-07T13:11:31.566Z,2.20
2019-06-07T13:14:00.647Z,2.15
2019-06-07T13:16:30.499Z,2.00
2019-06-07T13:19:00.414Z,2.20
2019-06-07T13:21:30.594Z,2.37
2019-06-07T13:24:00.667Z,2.27
2019-06-07T13:26:30.852Z,2.10
2019-06-07T13:29:00.692Z,2.25
2019-06-07T13:31:30.767Z,2.52
2019-06-07T13:34:00.568Z,2.05
2019-06-07T13:36:30.393Z,2.20
2019-06-07T13:39:00.215Z,2.10
2019-06-07T13:41:40.476Z,1.90
2019-06-07T13:44:01.551Z,1.90
2019-06-07T13:46:31.403Z,2.10
2019-06-07T13:49:01.340Z,1.87
2019-06-07T13:51:33.221Z,1.98
2019-06-07T13:54:02.991Z,2.45
2019-06-07T13:56:33.817Z,2.00
2019-06-07T13:59:03.641Z,1.82
2019-06-07T14:01:33.772Z,1.85
2019-06-07T14:04:03.588Z,2.08
2019-06-07T14:06:33.641Z,2.00
2019-06-07T14:09:05.248Z,2.47
2019-06-07T14:11:49.527Z,1.90
2019-06-07T14:14:06.871Z,1.98
2019-06-07T14:16:36.760Z,1.87
2019-06-07T14:19:06.876Z,1.95
2019-06-07T14:21:36.938Z,1.57
2019-06-07T14:24:06.988Z,1.90
2019-06-07T14:26:36.811Z,1.52
2019-06-07T14:29:06.867Z,1.82
2019-06-07T14:31:37.979Z,1.72
2019-06-07T14:34:07.910Z,1.80
2019-06-07T14:36:38.024Z,1.85
2019-06-07T14:39:08.144Z,1.80
2019-06-07T14:41:38.107Z,2.10
2019-06-07T14:44:07.915Z,1.65
2019-06-07T14:46:37.760Z,2.50
2019-06-07T14:49:07.623Z,1.85
2019-06-07T14:51:37.675Z,1.70
2019-06-07T14:54:07.729Z,2.02
2019-06-07T14:56:37.795Z,2.00
2019-06-07T14:59:07.624Z,2.00
2019-06-07T15:01:37.515Z,2.00
2019-06-07T15:04:07.543Z,2.17
2019-06-07T15:06:37.362Z,2.15
2019-06-07T15:09:07.906Z,2.58
2019-06-07T15:11:39.143Z,2.10
2019-06-07T15:14:09.299Z,2.70
2019-06-07T15:16:39.136Z,2.67
2019-06-07T15:19:09.003Z,2.40
2019-06-07T15:21:39.267Z,2.30
2019-06-07T15:24:10.105Z,3.12
2019-06-07T15:26:40.161Z,2.90
2019-06-07T15:29:10.227Z,2.50
2019-06-07T15:31:40.049Z,2.77
2019-06-07T15:34:10.128Z,2.80
2019-06-07T15:36:39.948Z,4.62
2019-06-07T15:39:10.100Z,4.72
2019-06-07T15:41:40.044Z,3.65
2019-06-07T15:44:11.103Z,3.37
2019-06-07T15:46:41.210Z,3.25
2019-06-07T15:49:12.264Z,3.35
2019-06-07T15:51:42.383Z,3.27
2019-06-07T15:54:12.207Z,2.50
2019-06-07T15:56:42.003Z,3.00
2019-06-07T15:59:12.046Z,2.55
2019-06-07T16:01:42.362Z,2.10
2019-06-07T16:04:12.395Z,1.60
2019-06-07T16:06:43.441Z,1.50
2019-06-07T16:09:13.807Z,1.10
2019-06-07T16:11:44.056Z,1.50
2019-06-07T16:14:14.376Z,0.93
2019-06-07T16:16:44.510Z,0.90
2019-06-07T16:19:14.573Z,1.00
2019-06-07T16:21:44.368Z,0.88
2019-06-07T16:24:14.179Z,0.65
2019-06-07T16:26:44.651Z,0.80
2019-06-07T16:29:14.922Z,0.70
2019-06-07T16:31:45.198Z,0.62
2019-06-07T16:34:15.330Z,0.60
2019-06-07T16:36:46.773Z,0.60
2019-06-07T16:39:16.771Z,0.70
2019-06-07T16:41:46.605Z,0.60
2019-06-07T16:44:16.654Z,0.70
2019-06-07T16:46:46.697Z,0.85
2019-06-07T16:49:16.762Z,0.62
2019-06-07T16:51:46.589Z,0.60
2019-06-07T16:54:17.378Z,0.70
2019-06-07T16:56:49.833Z,0.88
2019-06-07T16:59:18.935Z,0.70
2019-06-07T17:01:49.576Z,0.90
2019-06-07T17:04:19.755Z,0.50
2019-06-07T17:06:49.631Z,0.75
2019-06-07T17:09:19.767Z,0.75
2019-06-07T17:11:49.638Z,0.60
2019-06-07T17:14:19.431Z,0.50
2019-06-07T17:16:50.304Z,0.70
2019-06-07T17:19:21.464Z,0.70
2019-06-07T17:21:51.279Z,0.57
2019-06-07T17:24:21.087Z,0.60
2019-06-07T17:26:51.130Z,0.60
2019-06-07T17:29:21.179Z,1.00
2019-06-07T17:31:50.993Z,0.70
2019-06-07T17:34:21.104Z,1.00
2019-06-07T17:36:51.203Z,0.93
2019-06-07T17:39:21.282Z,1.00
2019-06-07T17:42:01.383Z,0.60
2019-06-07T17:44:22.612Z,0.65
2019-06-07T17:46:52.426Z,0.50
2019-06-07T17:49:23.075Z,1.00
2019-06-07T17:51:53.204Z,1.60
2019-06-07T17:54:23.009Z,0.65
2019-06-07T17:56:53.229Z,1.37
2019-06-07T17:59:23.462Z,0.65
2019-06-07T18:02:13.373Z,0.55
2019-06-07T18:04:24.846Z,0.75
2019-06-07T18:06:55.272Z,0.70
2019-06-07T18:09:25.722Z,0.50
2019-06-07T18:11:55.776Z,0.60
2019-06-07T18:14:25.652Z,0.42
2019-06-07T18:16:55.521Z,0.62
2019-06-07T18:19:25.323Z,0.85
2019-06-07T18:21:58.617Z,0.55
2019-06-07T18:24:27.893Z,0.50
2019-06-07T18:26:58.932Z,0.50
2019-06-07T18:29:29.028Z,0.72
2019-06-07T18:32:00.378Z,0.70
2019-06-07T18:34:30.238Z,0.53
2019-06-07T18:37:00.135Z,0.60
2019-06-07T18:39:29.988Z,0.50
2019-06-07T18:41:59.808Z,0.68
2019-06-07T18:44:29.633Z,0.80
2019-06-07T18:46:59.434Z,0.53
2019-06-07T18:49:29.509Z,0.60
2019-06-07T18:52:13.005Z,0.72
2019-06-07T18:54:43.141Z,0.72
2019-06-07T18:57:12.955Z,0.93
2019-06-07T18:59:43.014Z,0.70
2019-06-07T19:02:13.077Z,0.80
2019-06-07T19:04:42.883Z,0.60
2019-06-07T19:07:12.698Z,0.83
2019-06-07T19:09:42.769Z,0.85
2019-06-07T19:12:12.840Z,0.80
2019-06-07T19:14:42.903Z,0.90
2019-06-07T19:17:13.113Z,1.00
2019-06-07T19:19:42.919Z,0.72
2019-06-07T19:22:12.972Z,0.60
2019-06-07T19:24:43.050Z,0.70
2019-06-07T19:27:13.110Z,0.70
2019-06-07T19:29:43.165Z,0.88
2019-06-07T19:32:13.039Z,0.40
2019-06-07T19:34:43.104Z,0.50
2019-06-07T19:37:12.916Z,0.80
2019-06-07T19:39:42.732Z,0.85
2019-06-07T19:42:13.775Z,0.70
2019-06-07T19:44:53.214Z,0.75
2019-06-07T19:47:15.372Z,0.88
2019-06-07T19:49:45.184Z,0.90
2019-06-07T19:52:15.226Z,1.25
2019-06-07T19:54:45.292Z,0.93
2019-06-07T19:57:15.198Z,0.78
2019-06-07T19:59:45.012Z,0.90
2019-06-07T20:02:14.886Z,0.60
2019-06-07T20:04:44.944Z,0.85
2019-06-07T20:07:15.015Z,0.65
2019-06-07T20:09:44.809Z,0.72
2019-06-07T20:12:14.619Z,1.22
2019-06-07T20:14:44.666Z,0.98
2019-06-07T20:17:14.518Z,0.90
2019-06-07T20:19:44.575Z,1.00
2019-06-07T20:22:14.627Z,1.20
2019-06-07T20:24:44.430Z,0.98
2019-06-07T20:27:14.579Z,0.75
2019-06-07T20:29:44.533Z,0.70
2019-06-07T20:32:14.578Z,0.70
2019-06-07T20:34:44.908Z,0.90
2019-06-07T20:37:14.879Z,0.70
2019-06-07T20:39:44.966Z,0.90
2019-06-07T20:42:14.823Z,0.80
2019-06-07T20:44:44.655Z,0.88
2019-06-07T20:47:14.476Z,0.90
2019-06-07T20:49:44.603Z,0.50
2019-06-07T20:52:15.400Z,1.32
2019-06-07T20:54:45.463Z,0.82
2019-06-07T20:57:15.296Z,0.98
2019-06-07T20:59:45.253Z,0.93
2019-06-07T21:02:15.140Z,0.57
2019-06-07T21:04:45.024Z,1.10
2019-06-07T21:07:14.893Z,0.88
2019-06-07T21:09:44.727Z,1.30
2019-06-07T21:12:14.791Z,1.07
2019-06-07T21:14:44.618Z,0.93
2019-06-07T21:17:14.672Z,1.10
2019-06-07T21:19:44.566Z,0.90
2019-06-07T21:22:15.608Z,1.02
2019-06-07T21:24:45.686Z,1.00
2019-06-07T21:27:15.726Z,1.15
2019-06-07T21:29:45.722Z,1.17
2019-06-07T21:32:15.533Z,0.80
2019-06-07T21:34:45.329Z,0.80
2019-06-07T21:37:15.127Z,1.00
2019-06-07T21:39:45.172Z,1.02
2019-06-07T21:42:15.255Z,0.95
2019-06-07T21:44:45.070Z,1.30
2019-06-07T21:47:15.106Z,0.62
2019-06-07T21:49:45.183Z,0.80
2019-06-07T21:52:15.257Z,1.00
2019-06-07T21:54:45.063Z,1.22
2019-06-07T21:57:15.127Z,0.75
2019-06-07T21:59:45.054Z,1.10
2019-06-07T22:02:15.053Z,0.90
2019-06-07T22:04:44.915Z,0.88
2019-06-07T22:07:14.982Z,1.05
2019-06-07T22:09:45.033Z,0.75
2019-06-07T22:12:14.834Z,0.90
2019-06-07T22:14:44.635Z,0.70
2019-06-07T22:17:14.559Z,0.98
2019-06-07T22:19:44.438Z,0.80
2019-06-07T22:22:14.875Z,1.02
2019-06-07T22:24:44.988Z,1.20
2019-06-07T22:27:15.686Z,0.78
2019-06-07T22:29:45.581Z,0.90
2019-06-07T22:32:15.391Z,0.90
2019-06-07T22:34:45.453Z,1.00
2019-06-07T22:37:17.321Z,0.72
2019-06-07T22:39:46.824Z,0.65
2019-06-07T22:42:16.976Z,1.75
2019-06-07T22:44:46.990Z,0.80
2019-06-07T22:47:18.144Z,1.00
2019-06-07T22:49:48.460Z,1.00
2019-06-07T22:52:18.457Z,0.93
2019-06-07T22:54:49.503Z,0.70
2019-06-07T22:57:21.208Z,0.70
2019-06-07T22:59:51.027Z,0.55
2019-06-07T23:02:22.071Z,0.80
2019-06-07T23:04:52.120Z,1.07
2019-06-07T23:07:21.947Z,0.85
2019-06-07T23:09:52.002Z,0.60
2019-06-07T23:12:21.796Z,1.45
2019-06-07T23:14:51.621Z,0.90
2019-06-07T23:17:21.443Z,1.05
2019-06-07T23:19:51.341Z,0.70
2019-06-07T23:22:21.199Z,0.60
2019-06-07T23:24:51.009Z,1.02
2019-06-07T23:27:20.857Z,1.00
2019-06-07T23:29:51.894Z,0.98
2019-06-07T23:32:21.713Z,0.70
2019-06-07T23:34:51.774Z,0.80
2019-06-07T23:37:21.606Z,1.10
2019-06-07T23:39:51.727Z,1.10
2019-06-07T23:42:21.823Z,1.22
2019-06-07T23:44:51.797Z,1.35
2019-06-07T23:47:22.392Z,0.90
2019-06-07T23:49:53.573Z,1.30
2019-06-07T23:52:23.399Z,1.20
2019-06-07T23:54:53.198Z,0.90
2019-06-07T23:57:23.022Z,1.02
2019-06-07T23:59:52.833Z,1.02
